Time;durP1;ratioP1;P1;durP2;ratioP2;P2;SDS_P1;SDS_P2;PMS_P1;PMS_P2;Temp;Humidity;BMP_temperature;BMP_pressure;BME280_temperature;BME280_humidity;BME280_pressure;Samples;Min_cycle;Max_cycle;Signal;HPM_P1;HPM_P2
2023/07/30 00:00:42;;;;;;;8.77;4.30;;;15.30;99.90;;;;;;5029220;28;20037;-69
2023/07/30 00:03:08;;;;;;;10.13;4.35;;;15.30;99.90;;;;;;5023957;28;20476;-70
2023/07/30 00:05:33;;;;;;;7.78;3.72;;;15.30;99.90;;;;;;5036147;28;20037;-69
2023/07/30 00:07:59;;;;;;;10.43;4.30;;;15.30;99.90;;;;;;5059085;28;20480;-69
2023/07/30 00:10:24;;;;;;;9.20;4.07;;;15.20;99.90;;;;;;5027580;28;20643;-68
2023/07/30 00:12:50;;;;;;;10.18;3.97;;;15.20;99.90;;;;;;5050787;28;20445;-68
2023/07/30 00:15:16;;;;;;;7.90;4.03;;;15.20;99.90;;;;;;5040886;28;20044;-69
2023/07/30 00:17:41;;;;;;;12.00;4.47;;;15.20;99.90;;;;;;5038880;28;20461;-69
2023/07/30 00:20:08;;;;;;;8.60;3.75;;;15.20;99.90;;;;;;5035585;28;20366;-68
2023/07/30 00:22:33;;;;;;;7.80;3.97;;;15.20;99.90;;;;;;5035557;28;20174;-69
2023/07/30 00:24:59;;;;;;;12.45;4.30;;;15.20;99.90;;;;;;5040978;28;20200;-69
2023/07/30 00:27:24;;;;;;;11.65;4.05;;;15.20;99.90;;;;;;5054338;28;20043;-68
2023/07/30 00:29:50;;;;;;;15.73;4.45;;;15.20;99.90;;;;;;5048344;28;20044;-67
2023/07/30 00:32:16;;;;;;;12.55;3.67;;;15.20;99.90;;;;;;5035287;28;20136;-69
2023/07/30 00:34:42;;;;;;;9.88;3.80;;;15.20;99.90;;;;;;5034798;28;20033;-68
2023/07/30 00:37:09;;;;;;;9.98;3.78;;;15.20;99.90;;;;;;5047194;28;20033;-69
2023/07/30 00:39:35;;;;;;;11.07;4.00;;;15.20;99.90;;;;;;5040845;28;20038;-69
2023/07/30 00:42:00;;;;;;;10.80;4.25;;;15.10;99.90;;;;;;5030547;28;20646;-69
2023/07/30 00:44:26;;;;;;;15.80;3.90;;;15.20;99.90;;;;;;5028964;28;20054;-68
2023/07/30 00:46:52;;;;;;;11.73;4.63;;;15.10;99.90;;;;;;5029677;28;20076;-68
2023/07/30 00:49:18;;;;;;;11.93;3.83;;;15.00;99.90;;;;;;5032990;28;20052;-69
2023/07/30 00:51:44;;;;;;;15.43;4.10;;;15.00;99.90;;;;;;5033585;28;20076;-69
2023/07/30 00:54:10;;;;;;;12.82;4.10;;;15.00;99.90;;;;;;5028911;28;20887;-68
2023/07/30 00:56:36;;;;;;;10.48;3.92;;;15.00;99.90;;;;;;5027677;28;20033;-69
2023/07/30 00:59:02;;;;;;;13.07;4.00;;;14.90;99.90;;;;;;5027064;28;20084;-68
2023/07/30 01:01:30;;;;;;;12.80;3.85;;;14.90;99.90;;;;;;5039201;28;20035;-69
2023/07/30 01:03:56;;;;;;;16.13;4.50;;;14.90;99.90;;;;;;5034991;28;20076;-67
2023/07/30 01:06:23;;;;;;;11.18;3.65;;;14.90;99.90;;;;;;5034618;28;20532;-68
2023/07/30 01:08:48;;;;;;;10.18;3.92;;;14.90;99.90;;;;;;5029059;28;20041;-68
2023/07/30 01:11:15;;;;;;;10.75;4.65;;;14.90;99.90;;;;;;5029635;28;20091;-67
2023/07/30 01:13:41;;;;;;;12.07;4.55;;;14.90;99.90;;;;;;5039186;28;20142;-67
2023/07/30 01:16:07;;;;;;;11.32;4.15;;;14.90;99.90;;;;;;5025572;28;20061;-68
2023/07/30 01:18:33;;;;;;;13.90;3.85;;;14.80;99.90;;;;;;5034023;28;20235;-69
2023/07/30 01:20:59;;;;;;;17.05;4.45;;;14.80;99.90;;;;;;5035922;28;20536;-67
2023/07/30 01:23:26;;;;;;;13.77;4.88;;;14.80;99.90;;;;;;5027180;28;20041;-68
2023/07/30 01:26:03;;;;;;;13.68;4.00;;;14.70;99.90;;;;;;5027579;28;20061;-69
2023/07/30 01:28:35;;;;;;;13.05;4.10;;;14.70;99.90;;;;;;5038533;28;20361;-69
2023/07/30 01:31:02;;;;;;;15.18;4.25;;;14.70;99.90;;;;;;5038230;28;20240;-68
2023/07/30 01:33:29;;;;;;;8.82;3.80;;;14.70;99.90;;;;;;5032071;28;20048;-69
2023/07/30 01:35:57;;;;;;;10.20;4.35;;;14.60;99.90;;;;;;5028417;28;20133;-68
2023/07/30 01:38:23;;;;;;;16.70;4.43;;;14.60;99.90;;;;;;5026377;28;20103;-68
2023/07/30 01:40:48;;;;;;;10.98;4.05;;;14.60;99.90;;;;;;5046326;28;20474;-69
2023/07/30 01:43:14;;;;;;;11.88;4.13;;;14.60;99.90;;;;;;5032838;28;20844;-69
2023/07/30 01:45:40;;;;;;;10.60;4.10;;;14.60;99.90;;;;;;5039793;28;20033;-68
2023/07/30 01:48:06;;;;;;;18.08;4.60;;;14.70;99.90;;;;;;5037928;28;20663;-69
2023/07/30 01:50:32;;;;;;;16.67;4.03;;;14.60;99.90;;;;;;5033512;28;20064;-69
2023/07/30 01:52:57;;;;;;;12.52;4.03;;;14.60;99.90;;;;;;5045670;28;20160;-67
2023/07/30 01:55:23;;;;;;;10.80;4.57;;;14.60;99.90;;;;;;5013335;28;20536;-69
2023/07/30 01:57:48;;;;;;;10.65;4.35;;;14.50;99.90;;;;;;5025669;28;20099;-68
2023/07/30 02:00:14;;;;;;;14.38;4.78;;;14.60;99.90;;;;;;5037725;28;20041;-69
2023/07/30 02:02:39;;;;;;;16.13;4.60;;;14.60;99.90;;;;;;5029552;28;20128;-68
2023/07/30 02:05:05;;;;;;;11.77;4.20;;;14.50;99.90;;;;;;5040388;28;20141;-68
2023/07/30 02:07:31;;;;;;;15.55;4.60;;;14.40;99.90;;;;;;5026111;28;20164;-68
2023/07/30 02:09:56;;;;;;;11.68;4.40;;;14.40;99.90;;;;;;5026050;28;20057;-68
2023/07/30 02:12:22;;;;;;;13.02;5.20;;;14.40;99.90;;;;;;5042388;28;20131;-68
2023/07/30 02:14:47;;;;;;;12.02;4.35;;;14.40;99.90;;;;;;5035859;28;20383;-68
2023/07/30 02:17:13;;;;;;;13.48;4.30;;;14.40;99.90;;;;;;5034190;28;20067;-68
2023/07/30 02:19:39;;;;;;;11.95;5.00;;;14.40;99.90;;;;;;5042733;28;20033;-68
2023/07/30 02:22:04;;;;;;;12.60;4.47;;;14.30;99.90;;;;;;5029415;28;20044;-68
2023/07/30 02:24:30;;;;;;;15.57;4.60;;;14.30;99.90;;;;;;5035514;28;20041;-68
2023/07/30 02:26:55;;;;;;;11.52;4.32;;;14.20;99.90;;;;;;5022549;28;20156;-69
2023/07/30 02:29:21;;;;;;;10.52;4.00;;;14.30;99.90;;;;;;5033480;28;20049;-68
2023/07/30 02:31:46;;;;;;;10.05;4.22;;;14.30;99.90;;;;;;5035050;28;20565;-69
2023/07/30 02:34:12;;;;;;;9.48;4.38;;;14.20;99.90;;;;;;5034139;28;21165;-68
2023/07/30 02:36:38;;;;;;;15.55;4.50;;;14.20;99.90;;;;;;5042893;28;20052;-69
2023/07/30 02:39:03;;;;;;;13.13;4.05;;;14.20;99.90;;;;;;5027405;28;20116;-68
2023/07/30 02:41:29;;;;;;;9.65;3.85;;;14.20;99.90;;;;;;5030053;28;20025;-69
2023/07/30 02:43:54;;;;;;;9.70;3.70;;;14.10;99.90;;;;;;5039216;28;20095;-67
2023/07/30 02:46:20;;;;;;;15.23;3.70;;;14.10;99.90;;;;;;5029752;28;20033;-68
2023/07/30 02:48:45;;;;;;;11.70;3.88;;;14.20;99.90;;;;;;5034224;28;20086;-68
2023/07/30 02:51:11;;;;;;;13.07;3.75;;;14.30;99.90;;;;;;5040946;28;20738;-71
2023/07/30 02:53:36;;;;;;;11.13;3.85;;;14.30;99.90;;;;;;5031496;28;20450;-69
2023/07/30 02:56:02;;;;;;;11.75;3.72;;;14.30;99.90;;;;;;5024408;28;20038;-71
2023/07/30 02:58:28;;;;;;;11.18;3.60;;;14.30;99.90;;;;;;5026185;28;20048;-69
2023/07/30 03:00:53;;;;;;;15.07;3.45;;;14.40;99.90;;;;;;5036555;28;20056;-71
2023/07/30 03:03:19;;;;;;;13.43;4.03;;;14.40;99.90;;;;;;5026366;28;20046;-68
2023/07/30 03:05:44;;;;;;;8.15;3.75;;;14.40;99.90;;;;;;5027731;28;20041;-68
2023/07/30 03:08:10;;;;;;;12.00;3.65;;;14.40;99.90;;;;;;5032533;28;20102;-68
2023/07/30 03:10:38;;;;;;;14.73;3.58;;;14.40;99.90;;;;;;5052668;28;20609;-68
2023/07/30 03:13:04;;;;;;;11.60;3.75;;;14.40;99.90;;;;;;5041117;28;20037;-68
2023/07/30 03:15:29;;;;;;;10.95;3.63;;;14.50;99.90;;;;;;5031386;28;20044;-68
2023/07/30 03:17:55;;;;;;;10.35;3.25;;;14.50;99.90;;;;;;5057457;28;20465;-68
2023/07/30 03:20:21;;;;;;;12.50;3.65;;;14.50;99.90;;;;;;5042876;28;20041;-68
2023/07/30 03:22:46;;;;;;;11.80;3.08;;;14.50;99.90;;;;;;5047943;28;20114;-68
2023/07/30 03:25:12;;;;;;;13.55;3.30;;;14.50;99.90;;;;;;5033335;28;20076;-68
2023/07/30 03:27:37;;;;;;;9.60;3.63;;;14.50;99.90;;;;;;5045492;28;20040;-68
2023/07/30 03:30:04;;;;;;;11.75;3.00;;;14.50;99.90;;;;;;5039170;28;20029;-69
2023/07/30 03:32:30;;;;;;;12.40;3.47;;;14.50;99.90;;;;;;5045344;28;20041;-69
2023/07/30 03:34:55;;;;;;;14.80;3.28;;;14.40;99.90;;;;;;5040544;28;20033;-67
2023/07/30 03:37:21;;;;;;;7.50;3.20;;;14.40;99.90;;;;;;5044119;28;20172;-69
2023/07/30 03:39:46;;;;;;;11.48;3.22;;;14.50;99.90;;;;;;5054874;28;20045;-68
2023/07/30 03:42:12;;;;;;;8.85;3.00;;;14.40;99.90;;;;;;5036216;28;20057;-67
2023/07/30 03:44:37;;;;;;;11.45;3.15;;;14.50;99.90;;;;;;5041920;28;20029;-67
2023/07/30 03:47:03;;;;;;;12.80;3.22;;;14.50;99.90;;;;;;5060820;28;20045;-68
2023/07/30 03:49:28;;;;;;;12.43;3.05;;;14.50;99.90;;;;;;5043553;28;20384;-68
2023/07/30 03:51:54;;;;;;;13.73;2.97;;;14.50;99.90;;;;;;5052841;28;20063;-68
2023/07/30 03:54:20;;;;;;;10.15;2.67;;;14.50;99.90;;;;;;5034340;28;20040;-69
2023/07/30 03:56:45;;;;;;;13.55;3.17;;;14.50;99.90;;;;;;5030017;28;20077;-69
2023/07/30 03:59:11;;;;;;;14.13;3.45;;;14.50;99.90;;;;;;5038116;28;20598;-69
2023/07/30 04:01:36;;;;;;;9.85;2.97;;;14.50;99.90;;;;;;5044944;28;20032;-69
2023/07/30 04:04:02;;;;;;;11.30;3.17;;;14.50;99.90;;;;;;5037240;28;20049;-67
2023/07/30 04:06:27;;;;;;;8.43;3.20;;;14.50;99.90;;;;;;5045148;28;20028;-68
2023/07/30 04:08:53;;;;;;;12.60;2.83;;;14.50;99.90;;;;;;5030616;28;20175;-68
2023/07/30 04:11:19;;;;;;;9.63;2.67;;;14.50;99.90;;;;;;5035618;28;20473;-68
2023/07/30 04:13:44;;;;;;;9.52;3.10;;;14.50;99.90;;;;;;5048313;28;20073;-68
2023/07/30 04:16:10;;;;;;;9.43;3.22;;;14.50;99.90;;;;;;5029814;28;20090;-68
2023/07/30 04:18:35;;;;;;;8.02;2.70;;;14.50;99.90;;;;;;5041575;28;20044;-69
2023/07/30 04:21:01;;;;;;;11.40;3.35;;;14.40;99.90;;;;;;5028510;28;20557;-68
2023/07/30 04:23:26;;;;;;;15.68;3.53;;;14.40;99.90;;;;;;5045035;28;20075;-67
2023/07/30 04:25:52;;;;;;;9.70;3.97;;;14.40;99.90;;;;;;5024233;28;20503;-70
2023/07/30 04:28:17;;;;;;;13.75;3.20;;;14.40;99.90;;;;;;5033253;28;20037;-68
2023/07/30 04:30:44;;;;;;;12.52;3.15;;;14.40;99.90;;;;;;5040993;28;20048;-68
2023/07/30 04:33:09;;;;;;;7.82;2.58;;;14.30;99.90;;;;;;5031418;28;20037;-68
2023/07/30 04:35:35;;;;;;;12.18;3.03;;;14.40;99.90;;;;;;5049758;28;20040;-69
2023/07/30 04:38:00;;;;;;;9.43;3.00;;;14.40;99.90;;;;;;5032600;28;20248;-68
2023/07/30 04:40:26;;;;;;;12.45;2.92;;;14.50;99.90;;;;;;5046974;28;20040;-69
2023/07/30 04:42:51;;;;;;;13.40;3.00;;;14.40;99.90;;;;;;5033901;28;20461;-67
2023/07/30 04:45:17;;;;;;;8.95;2.88;;;14.50;99.90;;;;;;5039473;28;20140;-68
2023/07/30 04:47:43;;;;;;;15.38;3.17;;;14.50;99.90;;;;;;5024266;28;20083;-68
2023/07/30 04:50:08;;;;;;;11.15;2.85;;;14.60;99.90;;;;;;5022434;28;20145;-68
2023/07/30 04:52:34;;;;;;;10.18;2.70;;;14.70;99.90;;;;;;5028144;28;20034;-67
2023/07/30 04:54:59;;;;;;;10.68;3.03;;;14.80;99.90;;;;;;5011095;28;20429;-68
2023/07/30 04:57:25;;;;;;;9.77;3.03;;;14.80;99.90;;;;;;5017628;28;22877;-67
2023/07/30 04:59:51;;;;;;;10.48;2.95;;;14.90;99.90;;;;;;5046437;28;20037;-69
2023/07/30 05:02:17;;;;;;;14.60;3.50;;;15.00;99.90;;;;;;5025904;28;20034;-69
2023/07/30 05:04:42;;;;;;;13.45;3.55;;;15.00;99.90;;;;;;5024439;28;20425;-69
2023/07/30 05:07:08;;;;;;;12.68;3.58;;;15.10;99.90;;;;;;5029957;28;20036;-68
2023/07/30 05:09:33;;;;;;;12.52;3.28;;;15.20;99.90;;;;;;5039209;28;20045;-69
2023/07/30 05:11:59;;;;;;;10.73;3.25;;;15.20;99.90;;;;;;5031213;28;20042;-70
2023/07/30 05:14:24;;;;;;;10.20;3.22;;;15.30;99.90;;;;;;5026505;28;20033;-68
2023/07/30 05:16:50;;;;;;;13.77;2.95;;;15.30;99.90;;;;;;5041521;28;20044;-68
2023/07/30 05:19:16;;;;;;;17.30;3.90;;;15.40;99.90;;;;;;5032445;28;20486;-69
2023/07/30 05:21:41;;;;;;;11.35;3.35;;;15.40;99.90;;;;;;5028029;28;20045;-67
2023/07/30 05:24:07;;;;;;;11.20;3.90;;;15.40;99.90;;;;;;5027255;28;20441;-69
2023/07/30 05:26:33;;;;;;;7.82;3.15;;;15.50;99.90;;;;;;5027259;28;20106;-68
2023/07/30 05:28:58;;;;;;;17.42;4.03;;;15.50;99.90;;;;;;5044226;28;20143;-68
2023/07/30 05:31:24;;;;;;;8.43;3.22;;;15.50;99.90;;;;;;5044866;28;20045;-69
2023/07/30 05:33:49;;;;;;;12.18;3.28;;;15.60;99.90;;;;;;5047151;28;20161;-68
2023/07/30 05:36:15;;;;;;;11.93;3.75;;;15.60;99.90;;;;;;5038441;28;20072;-69
2023/07/30 05:38:40;;;;;;;12.45;3.40;;;15.60;99.90;;;;;;5039316;28;20052;-69
2023/07/30 05:41:06;;;;;;;12.60;3.67;;;15.70;99.90;;;;;;5042662;28;20362;-69
2023/07/30 05:43:32;;;;;;;12.70;3.53;;;15.70;99.90;;;;;;5032069;28;20052;-67
2023/07/30 05:45:57;;;;;;;12.30;3.70;;;15.80;99.90;;;;;;5033368;28;20362;-69
2023/07/30 05:48:23;;;;;;;12.43;3.35;;;15.80;99.90;;;;;;5039377;28;20048;-68
2023/07/30 05:50:49;;;;;;;13.00;3.42;;;15.90;99.90;;;;;;5038584;28;20072;-68
2023/07/30 05:53:15;;;;;;;13.20;3.88;;;15.90;99.90;;;;;;5038948;28;20464;-69
2023/07/30 05:55:41;;;;;;;9.48;3.40;;;16.00;99.90;;;;;;5041205;28;20037;-68
2023/07/30 05:58:06;;;;;;;10.85;3.45;;;16.00;99.90;;;;;;5044835;28;20073;-68
2023/07/30 06:00:32;;;;;;;15.20;4.05;;;16.00;99.90;;;;;;5035614;28;20038;-68
2023/07/30 06:02:58;;;;;;;12.85;3.53;;;16.00;99.90;;;;;;5032554;28;20037;-69
2023/07/30 06:05:23;;;;;;;20.45;4.72;;;16.10;99.90;;;;;;5047791;28;20468;-69
2023/07/30 06:07:49;;;;;;;14.82;3.47;;;16.20;99.90;;;;;;5057024;28;20041;-67
2023/07/30 06:10:14;;;;;;;12.75;3.65;;;16.20;99.90;;;;;;5036152;28;20829;-69
2023/07/30 06:12:40;;;;;;;13.40;3.80;;;16.30;99.90;;;;;;5021223;28;20072;-68
2023/07/30 06:15:06;;;;;;;13.77;4.45;;;16.40;99.90;;;;;;5029270;28;20434;-71
2023/07/30 06:17:32;;;;;;;15.00;3.67;;;16.40;99.90;;;;;;5047142;28;20041;-67
2023/07/30 06:19:58;;;;;;;14.48;4.00;;;16.50;99.90;;;;;;5030047;28;20457;-69
2023/07/30 06:22:23;;;;;;;15.15;3.97;;;16.50;99.90;;;;;;5035904;28;20554;-68
2023/07/30 06:24:49;;;;;;;17.98;4.30;;;16.50;99.90;;;;;;5052955;28;20041;-68
2023/07/30 06:27:14;;;;;;;11.98;3.60;;;16.60;99.90;;;;;;5041005;28;20334;-70
2023/07/30 06:29:40;;;;;;;15.38;4.25;;;16.60;99.90;;;;;;5039300;28;20423;-68
2023/07/30 06:32:06;;;;;;;11.05;3.38;;;16.70;99.90;;;;;;5035941;28;20043;-71
2023/07/30 06:34:31;;;;;;;13.13;4.50;;;16.80;99.90;;;;;;5033123;28;20541;-74
2023/07/30 06:36:57;;;;;;;10.40;3.72;;;16.70;99.90;;;;;;5038087;28;20124;-69
2023/07/30 06:39:23;;;;;;;11.07;4.18;;;16.70;99.90;;;;;;5041420;28;20048;-70
2023/07/30 06:41:48;;;;;;;13.90;4.05;;;16.70;99.90;;;;;;5039272;28;20116;-71
2023/07/30 06:44:14;;;;;;;16.13;3.90;;;16.80;99.90;;;;;;5035232;28;20037;-68
2023/07/30 06:46:39;;;;;;;14.80;3.65;;;16.80;99.90;;;;;;5039098;28;20091;-68
2023/07/30 06:49:05;;;;;;;12.95;3.65;;;16.80;99.90;;;;;;5039133;28;20045;-69
2023/07/30 06:51:30;;;;;;;14.85;3.50;;;16.80;99.90;;;;;;5036969;28;20686;-68
2023/07/30 06:53:56;;;;;;;14.48;4.07;;;16.80;99.90;;;;;;5032685;28;20157;-70
2023/07/30 06:56:22;;;;;;;13.00;4.47;;;16.80;99.90;;;;;;5057458;28;20045;-68
2023/07/30 06:58:47;;;;;;;18.20;4.10;;;16.80;99.90;;;;;;5046733;28;20039;-69
2023/07/30 07:01:13;;;;;;;13.27;4.00;;;16.90;99.90;;;;;;5042048;28;20039;-69
2023/07/30 07:03:38;;;;;;;16.35;4.03;;;16.90;99.90;;;;;;5038853;28;20105;-68
2023/07/30 07:06:04;;;;;;;14.23;3.80;;;17.10;99.90;;;;;;5036950;28;20098;-69
2023/07/30 07:08:30;;;;;;;15.85;3.65;;;17.20;99.90;;;;;;5043605;28;20120;-69
2023/07/30 07:10:56;;;;;;;13.30;3.35;;;17.40;99.90;;;;;;5040691;28;20542;-70
2023/07/30 07:13:22;;;;;;;15.55;3.40;;;17.40;99.90;;;;;;5054912;28;20087;-69
2023/07/30 07:15:47;;;;;;;14.65;3.20;;;17.40;99.90;;;;;;5026084;28;20461;-68
2023/07/30 07:18:13;;;;;;;14.77;3.40;;;17.40;99.90;;;;;;5032669;28;20465;-68
2023/07/30 07:20:38;;;;;;;15.68;3.72;;;17.60;99.90;;;;;;5043655;28;20045;-69
2023/07/30 07:23:04;;;;;;;11.10;3.75;;;17.80;99.90;;;;;;5042786;28;20491;-69
2023/07/30 07:25:30;;;;;;;16.08;3.67;;;18.10;99.90;;;;;;5033244;28;20079;-70
2023/07/30 07:27:55;;;;;;;16.83;3.10;;;18.20;99.90;;;;;;5051925;28;20449;-69
2023/07/30 07:30:21;;;;;;;15.30;3.03;;;18.30;99.90;;;;;;5036118;28;20136;-68
2023/07/30 07:32:50;;;;;;;13.38;2.90;;;18.60;99.90;;;;;;5037125;28;20151;-70
2023/07/30 07:35:16;;;;;;;9.15;2.70;;;18.60;99.90;;;;;;5035202;28;20059;-71
2023/07/30 07:37:42;;;;;;;8.02;2.53;;;18.80;99.80;;;;;;5056991;28;20076;-71
2023/07/30 07:40:09;;;;;;;8.23;2.42;;;19.10;99.00;;;;;;5042371;28;20171;-70
2023/07/30 07:42:35;;;;;;;9.88;3.67;;;19.10;97.70;;;;;;5029547;28;20341;-70
2023/07/30 07:45:00;;;;;;;11.10;2.63;;;19.20;97.40;;;;;;5033874;28;20048;-70
2023/07/30 07:47:26;;;;;;;12.48;2.42;;;19.10;96.80;;;;;;5037144;28;20462;-71
2023/07/30 07:49:51;;;;;;;8.90;2.65;;;19.10;95.70;;;;;;5049634;28;20480;-70
2023/07/30 07:52:19;;;;;;;13.15;3.47;;;19.20;95.40;;;;;;5037755;28;20084;-70
2023/07/30 07:54:45;;;;;;;7.68;2.20;;;19.30;94.40;;;;;;5037247;28;20266;-69
2023/07/30 07:57:10;;;;;;;12.27;2.60;;;19.10;94.30;;;;;;5044208;28;20053;-70
2023/07/30 07:59:36;;;;;;;8.82;2.33;;;19.00;93.70;;;;;;5043707;28;20044;-70
2023/07/30 08:02:02;;;;;;;9.18;2.40;;;19.30;92.40;;;;;;5043890;28;20580;-68
2023/07/30 08:04:28;;;;;;;8.10;2.28;;;19.40;92.90;;;;;;5041853;28;20045;-72
2023/07/30 08:06:53;;;;;;;11.95;3.08;;;19.70;92.70;;;;;;5019994;28;20116;-70
2023/07/30 08:09:19;;;;;;;13.88;2.20;;;20.10;91.60;;;;;;5026004;28;20207;-71
2023/07/30 08:11:44;;;;;;;11.57;2.00;;;20.40;90.90;;;;;;5037075;28;20452;-71
2023/07/30 08:14:10;;;;;;;9.07;1.92;;;20.30;85.40;;;;;;5055994;28;20413;-72
2023/07/30 08:16:35;;;;;;;10.25;2.15;;;20.20;87.60;;;;;;5045114;28;20165;-70
2023/07/30 08:19:01;;;;;;;7.80;1.67;;;20.30;86.90;;;;;;5029687;28;20055;-73
2023/07/30 08:21:26;;;;;;;6.43;1.92;;;20.30;84.50;;;;;;5034561;28;20040;-71
2023/07/30 08:23:52;;;;;;;7.20;2.25;;;20.70;83.00;;;;;;5044456;28;20052;-71
2023/07/30 08:26:17;;;;;;;9.45;2.58;;;20.80;82.30;;;;;;5028310;28;20481;-68
2023/07/30 08:28:43;;;;;;;12.07;2.58;;;21.20;78.70;;;;;;5035928;28;20389;-71
2023/07/30 08:31:09;;;;;;;5.75;2.05;;;21.40;79.50;;;;;;5046405;28;20117;-70
2023/07/30 08:33:34;;;;;;;12.07;2.08;;;22.20;77.10;;;;;;5033580;28;20030;-74
2023/07/30 08:36:00;;;;;;;10.25;1.80;;;22.30;72.50;;;;;;5043341;28;20045;-68
2023/07/30 08:38:25;;;;;;;11.50;1.92;;;22.30;73.90;;;;;;5040023;28;20040;-72
2023/07/30 08:40:51;;;;;;;8.25;1.70;;;21.60;69.80;;;;;;5027598;28;20087;-72
2023/07/30 08:43:18;;;;;;;10.45;2.03;;;21.30;72.50;;;;;;5058296;28;20036;-71
2023/07/30 08:45:44;;;;;;;6.70;1.75;;;20.90;73.20;;;;;;5036974;28;20052;-69
2023/07/30 08:48:09;;;;;;;8.30;2.00;;;20.50;74.70;;;;;;5031402;28;20045;-72
2023/07/30 08:50:36;;;;;;;5.85;1.45;;;19.30;80.40;;;;;;5038148;28;20463;-74
2023/07/30 08:53:03;;;;;;;4.97;1.58;;;17.30;91.30;;;;;;5038513;28;20041;-70
2023/07/30 08:55:29;;;;;;;6.03;1.40;;;16.20;99.90;;;;;;5031407;28;20037;-68
2023/07/30 08:57:57;;;;;;;5.05;1.58;;;15.40;99.90;;;;;;5045437;28;20124;-73
2023/07/30 09:00:25;;;;;;;4.55;1.60;;;15.10;99.90;;;;;;5043198;28;20040;-73
2023/07/30 09:02:58;;;;;;;7.85;1.50;;;14.90;99.90;;;;;;5023506;28;20041;-71
2023/07/30 09:05:23;;;;;;;7.47;1.83;;;14.70;99.90;;;;;;5040165;28;20040;-73
2023/07/30 09:07:49;;;;;;;8.60;1.90;;;14.70;99.90;;;;;;5047894;28;20048;-72
2023/07/30 09:10:15;;;;;;;5.00;1.92;;;14.80;99.90;;;;;;5046653;28;20040;-72
2023/07/30 09:12:41;;;;;;;9.65;2.17;;;14.70;99.90;;;;;;5033528;28;20147;-72
2023/07/30 09:15:07;;;;;;;7.03;1.80;;;14.60;99.90;;;;;;5039252;28;20159;-71
2023/07/30 09:17:34;;;;;;;5.70;2.00;;;14.50;99.90;;;;;;5034777;28;20065;-72
2023/07/30 09:20:01;;;;;;;7.28;2.00;;;14.50;99.90;;;;;;5053451;28;20108;-73
2023/07/30 09:22:36;;;;;;;7.82;2.10;;;14.50;99.90;;;;;;5036596;28;20056;-72
2023/07/30 09:25:03;;;;;;;10.70;2.08;;;14.40;99.90;;;;;;5035633;28;20086;-74
2023/07/30 09:27:28;;;;;;;12.05;2.47;;;14.70;99.90;;;;;;5027365;28;20098;-72
2023/07/30 09:29:58;;;;;;;4.90;2.15;;;14.30;99.90;;;;;;5035893;28;20045;-73
2023/07/30 09:32:30;;;;;;;8.40;2.60;;;14.70;99.90;;;;;;5026049;28;20064;-71
2023/07/30 09:35:05;;;;;;;9.77;2.20;;;14.60;99.90;;;;;;5033058;28;20037;-74
2023/07/30 09:37:30;;;;;;;11.25;2.42;;;14.50;99.90;;;;;;5046156;28;20037;-73
2023/07/30 09:39:57;;;;;;;9.93;2.55;;;14.40;99.90;;;;;;5019311;28;20071;-72
2023/07/30 09:42:27;;;;;;;8.15;2.65;;;14.30;99.90;;;;;;5052260;28;20178;-74
2023/07/30 09:44:53;;;;;;;8.53;2.60;;;15.00;99.90;;;;;;5023443;28;20687;-71
2023/07/30 09:47:18;;;;;;;10.10;2.50;;;15.10;99.90;;;;;;5061476;28;20386;-73
2023/07/30 09:49:44;;;;;;;12.48;2.45;;;14.60;99.90;;;;;;5042716;28;20500;-70
2023/07/30 09:52:11;;;;;;;12.35;2.25;;;14.60;99.90;;;;;;5033502;28;20055;-68
2023/07/30 09:54:39;;;;;;;8.98;2.20;;;14.90;99.90;;;;;;5027822;28;20034;-69
2023/07/30 09:57:05;;;;;;;10.88;2.25;;;14.20;99.90;;;;;;5041766;28;20029;-67
2023/07/30 09:59:30;;;;;;;8.30;1.85;;;14.20;99.90;;;;;;5039531;28;20132;-70
2023/07/30 10:01:58;;;;;;;4.68;1.70;;;14.30;99.90;;;;;;5027328;28;20468;-71
2023/07/30 10:04:24;;;;;;;7.50;1.85;;;14.10;99.90;;;;;;5043662;28;20102;-70
2023/07/30 10:07:03;;;;;;;4.95;1.60;;;14.00;99.90;;;;;;5026288;28;20033;-71
2023/07/30 10:09:33;;;;;;;6.68;2.30;;;14.60;99.90;;;;;;5044835;28;20412;-71
2023/07/30 10:12:01;;;;;;;11.25;2.83;;;14.50;99.90;;;;;;5048152;28;20116;-71
2023/07/30 10:14:28;;;;;;;6.55;2.28;;;14.60;99.90;;;;;;5044989;28;20041;-71
2023/07/30 10:16:55;;;;;;;8.90;2.20;;;14.80;99.90;;;;;;5042051;28;20040;-71
2023/07/30 10:19:26;;;;;;;8.35;2.20;;;14.80;99.90;;;;;;5031467;28;20124;-71
2023/07/30 10:21:53;;;;;;;;;;;15.10;99.90;;;;;;5043866;28;20037;-70
2023/07/30 10:24:19;;;;;;;11.88;2.15;;;15.10;99.90;;;;;;5049252;28;19925;-70
2023/07/30 10:26:44;;;;;;;6.70;2.42;;;14.90;99.90;;;;;;5031142;28;20402;-69
2023/07/30 10:29:14;;;;;;;7.95;2.58;;;14.80;99.90;;;;;;5033321;28;20037;-70
2023/07/30 10:31:54;;;;;;;5.95;2.45;;;15.30;99.90;;;;;;5035758;28;20583;-68
2023/07/30 10:34:21;;;;;;;8.50;2.72;;;15.10;99.90;;;;;;5061911;28;20067;-68
2023/07/30 10:36:49;;;;;;;5.53;2.65;;;15.20;99.90;;;;;;5052083;28;20043;-67
2023/07/30 10:39:25;;;;;;;8.85;3.08;;;15.20;99.90;;;;;;5044699;28;20099;-67
2023/07/30 10:41:55;;;;;;;8.75;3.13;;;16.20;99.90;;;;;;5045399;28;20047;-67
2023/07/30 10:44:30;;;;;;;8.15;2.88;;;16.40;99.90;;;;;;5024727;28;20083;-66
2023/07/30 10:46:57;;;;;;;13.10;3.35;;;16.40;99.90;;;;;;5049799;28;20065;-66
2023/07/30 10:49:23;;;;;;;7.68;3.20;;;16.90;99.90;;;;;;5051507;28;20041;-66
2023/07/30 10:51:51;;;;;;;13.95;2.45;;;17.10;99.90;;;;;;5027576;28;20103;-67
2023/07/30 10:54:17;;;;;;;4.40;2.08;;;16.40;99.90;;;;;;5041738;28;20039;-65
2023/07/30 10:56:42;;;;;;;8.27;2.83;;;16.70;99.90;;;;;;5042455;28;20480;-65
2023/07/30 10:59:08;;;;;;;10.23;2.53;;;16.50;99.90;;;;;;5046496;28;20086;-66
2023/07/30 11:01:44;;;;;;;4.90;2.42;;;17.10;99.90;;;;;;5042138;28;20109;-66
2023/07/30 11:04:14;;;;;;;10.27;2.22;;;16.70;99.90;;;;;;5048551;28;20475;-66
2023/07/30 11:06:49;;;;;;;6.40;2.05;;;17.40;99.90;;;;;;5051953;28;20535;-66
2023/07/30 11:09:25;;;;;;;11.25;2.67;;;17.20;99.90;;;;;;5044435;28;20037;-65
2023/07/30 11:11:52;;;;;;;9.02;3.08;;;17.40;99.90;;;;;;5046900;28;20582;-66
2023/07/30 11:14:28;;;;;;;8.55;3.10;;;17.20;99.90;;;;;;5048098;28;20503;-65
2023/07/30 11:17:00;;;;;;;9.93;2.85;;;17.20;99.90;;;;;;5048784;28;20115;-65
2023/07/30 11:19:27;;;;;;;7.50;2.45;;;17.40;99.90;;;;;;5060044;28;20113;-67
2023/07/30 11:21:54;;;;;;;9.10;2.55;;;17.60;99.90;;;;;;5059476;28;20040;-67
2023/07/30 11:24:21;;;;;;;8.82;2.35;;;17.60;99.90;;;;;;5041339;28;20041;-66
2023/07/30 11:26:58;;;;;;;9.93;2.08;;;17.60;99.90;;;;;;5055340;28;20036;-66
2023/07/30 11:29:23;;;;;;;10.15;1.98;;;17.50;99.90;;;;;;5045245;28;20084;-68
2023/07/30 11:31:49;;;;;;;7.45;2.22;;;17.70;99.90;;;;;;5045770;28;20437;-67
2023/07/30 11:34:15;;;;;;;5.13;2.13;;;17.60;99.90;;;;;;5053866;28;20041;-69
2023/07/30 11:36:41;;;;;;;7.65;2.15;;;17.90;99.90;;;;;;5049806;28;20037;-70
2023/07/30 11:39:08;;;;;;;4.63;1.65;;;17.80;99.90;;;;;;5050051;28;20544;-69
2023/07/30 11:41:34;;;;;;;6.22;1.73;;;17.80;99.90;;;;;;5043328;28;20420;-70
2023/07/30 11:43:59;;;;;;;14.30;3.38;;;17.70;99.90;;;;;;5038789;28;20126;-70
2023/07/30 11:46:25;;;;;;;10.38;1.85;;;17.60;99.90;;;;;;5045197;28;20045;-70
2023/07/30 11:48:53;;;;;;;4.60;1.40;;;17.60;99.90;;;;;;5041189;28;20040;-73
2023/07/30 11:51:25;;;;;;;10.35;3.45;;;17.40;99.90;;;;;;5015140;28;20062;-72
2023/07/30 11:53:54;;;;;;;8.52;2.47;;;17.60;99.90;;;;;;5039222;28;20152;-69
2023/07/30 11:56:22;;;;;;;8.98;2.20;;;17.40;99.90;;;;;;5029654;28;20393;-77
2023/07/30 11:58:49;;;;;;;5.38;1.48;;;17.50;99.90;;;;;;5049903;28;20048;-76
2023/07/30 12:01:18;;;;;;;7.55;1.80;;;17.50;99.90;;;;;;5046630;28;20415;-74
2023/07/30 12:03:43;;;;;;;8.35;3.47;;;17.90;99.90;;;;;;5055140;28;20055;-74
2023/07/30 12:06:10;;;;;;;6.53;2.60;;;18.20;99.90;;;;;;5055235;28;21558;-75
2023/07/30 12:08:36;;;;;;;8.48;3.05;;;18.10;99.90;;;;;;5024254;28;20069;-73
2023/07/30 12:11:07;;;;;;;9.23;2.28;;;18.10;99.90;;;;;;5026270;28;20154;-74
2023/07/30 12:13:33;;;;;;;5.13;1.83;;;18.70;99.90;;;;;;5033552;28;20130;-76
2023/07/30 12:15:59;;;;;;;7.78;1.45;;;18.70;99.90;;;;;;5032894;28;20227;-75
2023/07/30 12:18:25;;;;;;;5.18;1.95;;;18.70;99.90;;;;;;5047659;28;20619;-72
2023/07/30 12:20:52;;;;;;;7.05;1.88;;;18.50;99.90;;;;;;5037722;28;20037;-73
2023/07/30 12:23:19;;;;;;;3.70;1.15;;;18.30;99.90;;;;;;5031945;28;20034;-73
2023/07/30 12:25:45;;;;;;;5.85;1.50;;;18.40;99.90;;;;;;5057911;28;20045;-70
2023/07/30 12:28:10;;;;;;;7.03;1.70;;;18.00;99.90;;;;;;5042936;28;20041;-75
2023/07/30 12:30:36;;;;;;;6.72;1.42;;;17.60;99.90;;;;;;5042371;28;20491;-71
2023/07/30 12:33:05;;;;;;;7.03;1.50;;;17.10;99.90;;;;;;5055674;28;20147;-71
2023/07/30 12:35:32;;;;;;;3.78;1.40;;;16.80;99.90;;;;;;5049141;28;20136;-71